createdAt,value
2022-12-04T00:01:20.297Z,-0.20
2022-12-04T00:03:47.364Z,-0.10
2022-12-04T00:06:17.495Z,-0.10
2022-12-04T00:08:45.622Z,-0.10
2022-12-04T00:11:14.282Z,0.00
2022-12-04T00:13:41.762Z,-0.10
2022-12-04T00:16:11.178Z,-0.10
2022-12-04T00:18:37.951Z,-0.10
2022-12-04T00:21:06.682Z,-0.10
2022-12-04T00:23:34.573Z,-0.10
2022-12-04T00:26:06.460Z,0.00
2022-12-04T00:28:34.202Z,0.00
2022-12-04T00:31:04.469Z,0.00
2022-12-04T00:33:31.161Z,-0.10
2022-12-04T00:35:59.072Z,0.00
2022-12-04T00:38:26.331Z,0.00
2022-12-04T00:40:53.358Z,0.00
2022-12-04T00:43:20.534Z,0.00
2022-12-04T00:45:47.402Z,-0.10
2022-12-04T00:48:14.208Z,-0.10
2022-12-04T00:50:40.931Z,-0.10
2022-12-04T00:53:07.970Z,-0.10
2022-12-04T00:55:37.403Z,-0.10
2022-12-04T00:58:04.665Z,-0.10
2022-12-04T01:00:32.051Z,0.00
2022-12-04T01:02:58.792Z,0.00
2022-12-04T01:05:25.578Z,0.00
2022-12-04T01:07:53.854Z,0.00
2022-12-04T01:10:21.051Z,0.00
2022-12-04T01:12:52.836Z,-0.10
2022-12-04T01:15:19.565Z,-0.10
2022-12-04T01:17:46.225Z,-0.10
2022-12-04T01:20:13.915Z,-0.10
2022-12-04T01:22:40.656Z,-0.10
2022-12-04T01:25:07.800Z,-0.10
2022-12-04T01:27:34.570Z,0.00
2022-12-04T01:30:01.299Z,-0.10
2022-12-04T01:32:28.725Z,-0.10
2022-12-04T01:34:55.413Z,-0.10
2022-12-04T01:37:22.089Z,-0.10
2022-12-04T01:39:48.768Z,-0.10
2022-12-04T01:42:15.980Z,-0.10
2022-12-04T01:44:45.233Z,-0.10
2022-12-04T01:47:11.931Z,-0.10
2022-12-04T01:49:47.564Z,-0.10
2022-12-04T01:52:21.401Z,-0.10
2022-12-04T01:54:59.079Z,-0.10
2022-12-04T01:57:31.027Z,0.00
2022-12-04T02:00:01.643Z,0.00
2022-12-04T02:02:40.333Z,0.00
2022-12-04T02:05:09.904Z,0.10
2022-12-04T02:07:38.986Z,0.10
2022-12-04T02:10:08.737Z,0.10
2022-12-04T02:12:51.076Z,0.10
2022-12-04T02:15:31.761Z,0.10
2022-12-04T02:18:17.163Z,0.20
2022-12-04T02:20:48.938Z,0.10
2022-12-04T02:23:34.195Z,0.10
2022-12-04T02:26:25.212Z,0.10
2022-12-04T02:29:04.819Z,0.10
2022-12-04T02:31:37.146Z,0.10
2022-12-04T02:34:15.595Z,0.10
2022-12-04T02:37:04.538Z,0.10
2022-12-04T02:39:51.965Z,0.10
2022-12-04T02:42:47.383Z,0.10
2022-12-04T02:45:40.151Z,0.20
2022-12-04T02:48:08.493Z,0.20
2022-12-04T02:50:39.395Z,0.30
2022-12-04T02:53:12.792Z,0.30
2022-12-04T02:55:44.909Z,0.30
2022-12-04T02:58:21.529Z,0.20
2022-12-04T03:00:50.482Z,0.20
2022-12-04T03:03:28.137Z,0.20
2022-12-04T03:06:02.512Z,0.10
2022-12-04T03:08:41.886Z,0.10
2022-12-04T03:11:09.046Z,0.10
2022-12-04T03:13:47.313Z,0.10
2022-12-04T03:16:27.207Z,0.10
2022-12-04T03:18:56.666Z,0.10
2022-12-04T03:21:30.323Z,0.20
2022-12-04T03:24:19.725Z,0.20
2022-12-04T03:27:10.977Z,0.20
2022-12-04T03:30:04.660Z,0.20
2022-12-04T03:32:45.576Z,0.20
2022-12-04T03:35:14.890Z,0.20
2022-12-04T03:37:52.035Z,0.20
2022-12-04T03:40:39.842Z,0.20
2022-12-04T03:43:16.564Z,0.20
2022-12-04T03:46:06.130Z,0.20
2022-12-04T03:48:51.181Z,0.20
2022-12-04T03:51:28.774Z,0.20
2022-12-04T03:54:06.673Z,0.20
2022-12-04T03:56:40.444Z,0.10
2022-12-04T03:59:12.604Z,0.20
2022-12-04T04:01:44.584Z,0.20
2022-12-04T04:04:16.785Z,0.20
2022-12-04T04:06:50.706Z,0.20
2022-12-04T04:09:21.796Z,0.20
2022-12-04T04:12:10.874Z,0.20
2022-12-04T04:15:05.750Z,0.20
2022-12-04T04:17:55.917Z,0.20
2022-12-04T04:20:47.383Z,0.20
2022-12-04T04:23:33.860Z,0.20
2022-12-04T04:26:02.855Z,0.20
2022-12-04T04:28:40.475Z,0.20
2022-12-04T04:31:58.512Z,0.20
2022-12-04T04:34:39.828Z,0.20
2022-12-04T04:37:15.618Z,0.20
2022-12-04T04:40:21.683Z,0.20
2022-12-04T04:43:11.325Z,0.20
2022-12-04T04:45:48.349Z,0.20
2022-12-04T04:48:20.359Z,0.30
2022-12-04T04:50:47.355Z,0.30
2022-12-04T04:53:18.895Z,0.30
2022-12-04T04:55:46.243Z,0.40
2022-12-04T04:58:16.523Z,0.40
2022-12-04T05:01:01.948Z,0.40
2022-12-04T05:03:29.642Z,0.40
2022-12-04T05:05:56.346Z,0.40
2022-12-04T05:08:23.413Z,0.40
2022-12-04T05:10:50.455Z,0.40
2022-12-04T05:13:18.779Z,0.40
2022-12-04T05:15:55.142Z,0.50
2022-12-04T05:18:21.892Z,0.40
2022-12-04T05:20:48.536Z,0.40
2022-12-04T05:23:15.193Z,0.40
2022-12-04T05:25:41.899Z,0.40
2022-12-04T05:28:08.575Z,0.30
2022-12-04T05:30:35.223Z,0.40
2022-12-04T05:33:02.062Z,0.30
2022-12-04T05:35:28.727Z,0.30
2022-12-04T05:37:55.372Z,0.40
2022-12-04T05:40:22.084Z,0.40
2022-12-04T05:42:48.720Z,0.40
2022-12-04T05:45:15.392Z,0.50
2022-12-04T05:47:43.526Z,0.40
2022-12-04T05:50:12.670Z,0.50
2022-12-04T05:52:39.429Z,0.50
2022-12-04T05:55:06.674Z,0.50
2022-12-04T05:57:33.315Z,0.40
2022-12-04T05:59:59.951Z,0.50
2022-12-04T06:02:26.775Z,0.40
2022-12-04T06:04:53.580Z,0.40
2022-12-04T06:07:20.281Z,0.40
2022-12-04T06:09:46.951Z,0.40
2022-12-04T06:12:13.591Z,0.40
2022-12-04T06:14:40.275Z,0.50
2022-12-04T06:17:07.170Z,0.40
2022-12-04T06:19:33.831Z,0.50
2022-12-04T06:22:00.563Z,0.50
2022-12-04T06:24:27.258Z,0.40
2022-12-04T06:29:47.212Z,0.60
2022-12-04T06:32:17.975Z,0.60
2022-12-04T06:34:53.472Z,0.60
2022-12-04T06:37:22.360Z,0.60
2022-12-04T06:39:49.082Z,0.60
2022-12-04T06:42:16.205Z,0.60
2022-12-04T06:44:42.865Z,0.60
2022-12-04T06:47:09.646Z,0.60
2022-12-04T06:49:36.382Z,0.60
2022-12-04T06:52:03.235Z,0.60
2022-12-04T06:54:29.955Z,0.70
2022-12-04T06:56:56.598Z,0.70
2022-12-04T06:59:23.795Z,0.70
2022-12-04T07:01:50.664Z,0.70
2022-12-04T07:04:17.398Z,0.80
2022-12-04T07:06:44.056Z,0.80
2022-12-04T07:09:16.927Z,0.80
2022-12-04T07:11:44.731Z,0.80
2022-12-04T07:14:12.719Z,0.80
2022-12-04T07:16:41.897Z,0.90
2022-12-04T07:19:14.139Z,0.80
2022-12-04T07:21:41.664Z,0.90
2022-12-04T07:24:09.699Z,0.90
2022-12-04T07:26:36.430Z,0.90
2022-12-04T07:29:03.140Z,0.90
2022-12-04T07:31:30.311Z,0.90
2022-12-04T07:33:57.654Z,0.90
2022-12-04T07:36:25.822Z,0.90
2022-12-04T07:38:54.322Z,0.90
2022-12-04T07:41:20.999Z,1.00
2022-12-04T07:43:47.727Z,1.10
2022-12-04T07:46:23.439Z,1.00
2022-12-04T07:48:50.195Z,1.00
2022-12-04T07:51:20.464Z,1.10
2022-12-04T07:53:47.767Z,1.10
2022-12-04T07:56:15.018Z,1.10
2022-12-04T07:58:42.565Z,1.10
2022-12-04T08:01:21.643Z,1.10
2022-12-04T08:03:51.232Z,1.00
2022-12-04T08:06:20.811Z,1.10
2022-12-04T08:08:48.347Z,1.00
2022-12-04T08:11:17.721Z,0.90
2022-12-04T08:13:45.301Z,0.90
2022-12-04T08:16:12.882Z,0.90
2022-12-04T08:18:40.273Z,1.00
2022-12-04T08:21:12.188Z,1.00
2022-12-04T08:23:40.173Z,1.00
2022-12-04T08:26:07.354Z,1.00
2022-12-04T08:28:34.793Z,1.00
2022-12-04T08:31:11.503Z,1.00
2022-12-04T08:33:38.209Z,1.00
2022-12-04T08:36:09.661Z,1.00
2022-12-04T08:38:36.887Z,1.00
2022-12-04T08:41:06.027Z,1.00
2022-12-04T08:43:33.435Z,1.10
2022-12-04T08:46:05.623Z,1.10
2022-12-04T08:48:32.915Z,1.10
2022-12-04T08:51:00.532Z,1.00
2022-12-04T08:53:27.243Z,1.10
2022-12-04T08:55:53.885Z,1.10
2022-12-04T08:58:20.945Z,1.20
2022-12-04T09:00:48.120Z,1.20
2022-12-04T09:03:17.594Z,1.20
2022-12-04T09:05:45.919Z,1.40
2022-12-04T09:08:14.472Z,1.40
2022-12-04T09:10:41.878Z,1.40
2022-12-04T09:13:09.019Z,1.40
2022-12-04T09:15:39.309Z,1.50
2022-12-04T09:18:07.020Z,1.40
2022-12-04T09:20:33.825Z,1.40
2022-12-04T09:23:05.045Z,1.40
2022-12-04T09:25:36.115Z,1.50
2022-12-04T09:28:03.163Z,1.50
2022-12-04T09:30:29.860Z,1.50
2022-12-04T09:32:56.557Z,1.50
2022-12-04T09:35:23.201Z,1.50
2022-12-04T09:37:49.871Z,1.40
2022-12-04T09:40:35.178Z,1.30
2022-12-04T09:43:27.119Z,1.40
2022-12-04T09:45:58.742Z,1.50
2022-12-04T09:48:33.084Z,1.40
2022-12-04T09:51:03.167Z,1.40
2022-12-04T09:53:43.518Z,1.50
2022-12-04T09:56:19.702Z,1.50
2022-12-04T09:59:12.502Z,1.50
2022-12-04T10:01:47.454Z,1.50
2022-12-04T10:04:15.302Z,1.50
2022-12-04T10:07:11.122Z,1.50
2022-12-04T10:10:08.521Z,1.50
2022-12-04T10:12:38.161Z,1.50
2022-12-04T10:15:31.952Z,1.50
2022-12-04T10:18:03.316Z,1.60
2022-12-04T10:21:03.598Z,1.50
2022-12-04T10:23:55.454Z,1.60
2022-12-04T10:26:28.195Z,1.60
2022-12-04T10:28:59.338Z,1.50
2022-12-04T10:31:27.880Z,1.50
2022-12-04T10:34:00.435Z,1.50
2022-12-04T10:36:33.480Z,1.60
2022-12-04T10:39:37.058Z,1.50
2022-12-04T10:42:06.424Z,1.60
2022-12-04T10:44:33.192Z,1.70
2022-12-04T10:47:01.596Z,1.60
2022-12-04T10:49:36.939Z,1.60
2022-12-04T10:52:05.587Z,1.70
2022-12-04T10:54:51.768Z,1.80
2022-12-04T10:57:18.542Z,1.80
2022-12-04T10:59:54.921Z,1.80
2022-12-04T11:02:27.430Z,1.90
2022-12-04T11:05:22.166Z,1.90
2022-12-04T11:07:51.112Z,2.00
2022-12-04T11:10:18.235Z,2.00
2022-12-04T11:12:58.912Z,2.10
2022-12-04T11:15:26.540Z,2.10
2022-12-04T11:17:53.467Z,2.10
2022-12-04T11:20:23.109Z,2.10
2022-12-04T11:22:57.049Z,2.10
2022-12-04T11:25:27.210Z,2.10
2022-12-04T11:27:57.097Z,2.00
2022-12-04T11:30:35.142Z,2.10
2022-12-04T11:33:03.992Z,2.00
2022-12-04T11:35:32.614Z,2.10
2022-12-04T11:38:15.320Z,2.10
2022-12-04T11:40:54.936Z,2.20
2022-12-04T11:43:26.215Z,2.10
2022-12-04T11:46:01.587Z,2.20
2022-12-04T11:48:31.107Z,2.10
2022-12-04T11:51:12.828Z,2.10
2022-12-04T11:53:52.777Z,2.20
2022-12-04T11:56:32.182Z,2.20
2022-12-04T11:59:37.126Z,2.20
2022-12-04T12:02:39.576Z,2.10
2022-12-04T12:05:37.291Z,2.00
2022-12-04T12:08:07.054Z,2.00
2022-12-04T12:10:44.853Z,2.00
2022-12-04T12:13:36.318Z,2.00
2022-12-04T12:16:16.827Z,1.90
2022-12-04T12:18:49.729Z,2.00
2022-12-04T12:21:25.828Z,1.90
2022-12-04T12:24:16.748Z,1.90
2022-12-04T12:26:46.501Z,1.90
2022-12-04T12:29:53.787Z,1.90
2022-12-04T12:32:50.668Z,1.90
2022-12-04T12:35:31.072Z,1.90
2022-12-04T12:38:10.539Z,1.90
2022-12-04T12:40:42.934Z,1.90
2022-12-04T12:43:30.260Z,2.00
2022-12-04T12:46:01.925Z,1.90
2022-12-04T12:48:45.551Z,1.90
2022-12-04T12:51:33.083Z,1.90
2022-12-04T12:54:11.755Z,1.80
2022-12-04T12:56:47.912Z,1.90
2022-12-04T12:59:20.934Z,1.90
2022-12-04T13:02:13.917Z,1.90
2022-12-04T13:04:47.958Z,2.00
2022-12-04T13:07:17.729Z,2.00
2022-12-04T13:10:04.927Z,1.90
2022-12-04T13:12:44.607Z,2.00
2022-12-04T13:15:17.250Z,2.00
2022-12-04T13:17:47.177Z,1.90
2022-12-04T13:20:31.774Z,1.80
2022-12-04T13:23:04.831Z,1.90
2022-12-04T13:25:43.505Z,1.80
2022-12-04T13:28:33.590Z,1.80
2022-12-04T13:31:21.711Z,1.90
2022-12-04T13:34:07.361Z,1.90
2022-12-04T13:36:54.062Z,1.90
2022-12-04T13:39:23.659Z,1.80
2022-12-04T13:42:01.852Z,1.80
2022-12-04T13:44:31.492Z,1.90
2022-12-04T13:47:02.501Z,1.80
2022-12-04T13:49:31.895Z,1.70
2022-12-04T13:52:00.185Z,1.80
2022-12-04T13:54:36.806Z,1.80
2022-12-04T13:57:15.382Z,1.70
2022-12-04T13:59:42.877Z,1.80
2022-12-04T14:02:35.756Z,1.80
2022-12-04T14:05:11.854Z,1.80
2022-12-04T14:07:42.436Z,1.90
2022-12-04T14:10:14.997Z,2.00
2022-12-04T14:12:51.124Z,2.00
2022-12-04T14:15:23.550Z,2.00
2022-12-04T14:18:11.303Z,1.90
2022-12-04T14:20:38.886Z,2.00
2022-12-04T14:23:26.270Z,2.00
2022-12-04T14:25:57.809Z,2.00
2022-12-04T14:28:41.962Z,2.00
2022-12-04T14:31:08.763Z,2.00
2022-12-04T14:34:16.451Z,2.10
2022-12-04T14:36:46.878Z,2.00
2022-12-04T14:39:36.261Z,2.10
2022-12-04T14:42:36.036Z,2.10
2022-12-04T14:45:06.508Z,2.00
2022-12-04T14:47:42.199Z,2.10
2022-12-04T14:50:30.484Z,2.10
2022-12-04T14:53:35.877Z,2.10
2022-12-04T14:56:32.348Z,2.30
2022-12-04T14:59:04.928Z,2.30
2022-12-04T15:01:37.914Z,2.20
2022-12-04T15:04:15.119Z,2.30
2022-12-04T15:06:44.461Z,2.30
2022-12-04T15:09:37.521Z,2.30
2022-12-04T15:12:34.847Z,2.20
2022-12-04T15:15:21.921Z,2.10
2022-12-04T15:18:07.302Z,2.10
2022-12-04T15:20:39.556Z,2.20
2022-12-04T15:23:06.607Z,2.20
2022-12-04T15:25:47.042Z,2.20
2022-12-04T15:28:34.392Z,2.10
2022-12-04T15:31:07.990Z,2.10
2022-12-04T15:33:37.204Z,2.00
2022-12-04T15:36:06.863Z,2.10
2022-12-04T15:38:34.369Z,2.00
2022-12-04T15:41:01.644Z,2.10
2022-12-04T15:43:33.190Z,2.10
2022-12-04T15:46:00.484Z,2.10
2022-12-04T15:48:29.625Z,2.00
2022-12-04T15:50:58.938Z,2.10
2022-12-04T15:53:33.850Z,2.10
2022-12-04T15:56:08.016Z,2.10
2022-12-04T15:58:38.062Z,2.00
2022-12-04T16:01:07.760Z,2.00
2022-12-04T16:03:43.575Z,2.10
2022-12-04T16:06:26.070Z,2.10
2022-12-04T16:08:58.368Z,2.10
2022-12-04T16:11:31.575Z,2.00
2022-12-04T16:14:13.013Z,2.00
2022-12-04T16:16:42.377Z,2.00
2022-12-04T16:19:18.737Z,2.00
2022-12-04T16:21:45.603Z,2.00
2022-12-04T16:24:14.033Z,2.00
2022-12-04T16:26:41.335Z,2.00
2022-12-04T16:29:08.240Z,1.90
2022-12-04T16:31:36.298Z,1.90
2022-12-04T16:34:03.145Z,1.90
2022-12-04T16:36:29.824Z,2.00
2022-12-04T16:38:56.554Z,2.00
2022-12-04T16:41:23.246Z,1.90
2022-12-04T16:43:55.912Z,2.00
2022-12-04T16:46:24.634Z,2.00
2022-12-04T16:48:51.811Z,2.00
2022-12-04T16:51:24.935Z,1.90
2022-12-04T16:53:52.430Z,2.00
2022-12-04T16:56:19.968Z,1.90
2022-12-04T16:58:47.197Z,1.80
2022-12-04T17:01:23.530Z,1.90
2022-12-04T17:03:50.581Z,1.90
2022-12-04T17:06:17.984Z,2.00
2022-12-04T17:08:45.349Z,2.00
2022-12-04T17:11:17.477Z,2.00
2022-12-04T17:13:44.866Z,2.00
2022-12-04T17:16:14.870Z,2.10
2022-12-04T17:18:42.791Z,2.10
2022-12-04T17:21:11.727Z,2.20
2022-12-04T17:23:38.662Z,2.20
2022-12-04T17:26:07.536Z,2.20
2022-12-04T17:28:36.308Z,2.10
2022-12-04T17:31:05.705Z,2.20
2022-12-04T17:33:33.134Z,2.20
2022-12-04T17:36:00.301Z,2.20
2022-12-04T17:38:27.767Z,2.20
2022-12-04T17:40:59.893Z,2.20
2022-12-04T17:43:28.830Z,2.30
2022-12-04T17:45:55.636Z,2.20
2022-12-04T17:48:22.351Z,2.20
2022-12-04T17:50:49.008Z,2.30
2022-12-04T17:53:15.720Z,2.40
2022-12-04T17:55:42.430Z,2.40
2022-12-04T17:58:09.073Z,2.30
2022-12-04T18:00:36.481Z,2.30
2022-12-04T18:03:03.214Z,2.30
2022-12-04T18:05:29.997Z,2.40
2022-12-04T18:07:56.704Z,2.40
2022-12-04T18:10:24.366Z,2.40
2022-12-04T18:12:51.012Z,2.30
2022-12-04T18:15:17.712Z,2.30
2022-12-04T18:17:44.439Z,2.20
2022-12-04T18:20:11.513Z,2.30
2022-12-04T18:22:38.280Z,2.30
2022-12-04T18:25:05.348Z,2.20
2022-12-04T18:27:32.048Z,2.30
2022-12-04T18:30:00.768Z,2.20
2022-12-04T18:32:27.444Z,2.30
2022-12-04T18:34:54.124Z,2.10
2022-12-04T18:37:20.754Z,2.20
2022-12-04T18:39:49.527Z,2.20
2022-12-04T18:42:16.209Z,2.20
2022-12-04T18:44:42.915Z,2.30
2022-12-04T18:47:09.776Z,2.30
2022-12-04T18:49:36.583Z,2.30
2022-12-04T18:52:03.290Z,2.30
2022-12-04T18:54:30.024Z,2.20
2022-12-04T18:56:56.665Z,2.30
2022-12-04T18:59:26.002Z,2.30
2022-12-04T19:01:53.691Z,2.30
2022-12-04T19:04:23.173Z,2.20
2022-12-04T19:06:52.832Z,2.20
2022-12-04T19:09:40.860Z,2.20
2022-12-04T19:12:10.934Z,2.10
2022-12-04T19:14:38.594Z,2.10
2022-12-04T19:17:05.580Z,2.20
2022-12-04T19:19:32.326Z,2.20
2022-12-04T19:21:59.167Z,2.20
2022-12-04T19:24:25.872Z,2.30
2022-12-04T19:26:53.981Z,2.30
2022-12-04T19:29:20.628Z,2.20
2022-12-04T19:31:47.378Z,2.30
2022-12-04T19:34:14.190Z,2.30
2022-12-04T19:36:41.655Z,2.40
2022-12-04T19:39:08.429Z,2.40
2022-12-04T19:41:37.038Z,2.30
2022-12-04T19:44:26.014Z,2.30
2022-12-04T19:46:51.421Z,2.30
2022-12-04T19:49:18.553Z,2.30
2022-12-04T19:51:45.335Z,2.40
2022-12-04T19:54:13.401Z,2.30
2022-12-04T19:56:40.731Z,2.30
2022-12-04T19:59:08.027Z,2.30
2022-12-04T20:01:35.897Z,2.30
2022-12-04T20:04:05.753Z,2.30
2022-12-04T20:06:43.209Z,2.30
2022-12-04T20:09:12.899Z,2.30
2022-12-04T20:11:40.729Z,2.40
2022-12-04T20:14:08.085Z,2.30
2022-12-04T20:16:35.700Z,2.30
2022-12-04T20:19:04.171Z,2.30
2022-12-04T20:21:32.415Z,2.30
2022-12-04T20:24:03.925Z,2.30
2022-12-04T20:26:33.865Z,2.40
2022-12-04T20:29:01.401Z,2.40
2022-12-04T20:31:34.653Z,2.40
2022-12-04T20:34:03.138Z,2.40
2022-12-04T20:36:30.924Z,2.30
2022-12-04T20:38:59.390Z,2.40
2022-12-04T20:41:28.801Z,2.40
2022-12-04T20:43:56.030Z,2.20
2022-12-04T20:46:28.269Z,2.30
2022-12-04T20:48:55.084Z,2.20
2022-12-04T20:51:24.907Z,2.20
2022-12-04T20:53:53.842Z,2.20
2022-12-04T20:56:21.926Z,2.30
2022-12-04T20:58:48.771Z,2.20
2022-12-04T21:01:17.900Z,2.30
2022-12-04T21:03:46.588Z,2.30
2022-12-04T21:06:15.902Z,2.30
2022-12-04T21:08:56.780Z,2.20
2022-12-04T21:11:24.563Z,2.20
2022-12-04T21:14:10.781Z,2.20
2022-12-04T21:16:37.472Z,2.10
2022-12-04T21:19:05.923Z,2.00
2022-12-04T21:21:33.284Z,2.00
2022-12-04T21:23:59.917Z,1.90
2022-12-04T21:26:31.175Z,1.90
2022-12-04T21:28:58.559Z,1.90
2022-12-04T21:31:28.616Z,2.00
2022-12-04T21:33:56.421Z,2.10
2022-12-04T21:36:23.823Z,2.10
2022-12-04T21:38:50.730Z,2.00
2022-12-04T21:41:36.800Z,1.90
2022-12-04T21:44:10.409Z,1.90
2022-12-04T21:46:37.172Z,1.90
2022-12-04T21:49:04.341Z,1.80
2022-12-04T21:51:56.189Z,1.70
2022-12-04T21:54:17.825Z,1.70
2022-12-04T21:56:44.473Z,1.80
2022-12-04T21:59:11.551Z,1.80
2022-12-04T22:01:38.348Z,1.90
2022-12-04T22:04:05.075Z,1.80
2022-12-04T22:06:36.239Z,1.80
2022-12-04T22:09:06.395Z,1.80
2022-12-04T22:11:33.108Z,1.80
2022-12-04T22:14:00.628Z,1.70
2022-12-04T22:16:30.707Z,1.70
2022-12-04T22:18:58.986Z,1.70
2022-12-04T22:21:26.456Z,1.70
2022-12-04T22:24:01.525Z,1.70
2022-12-04T22:26:29.947Z,1.80
2022-12-04T22:28:57.698Z,1.80
2022-12-04T22:31:28.868Z,1.80
2022-12-04T22:33:57.395Z,1.70
2022-12-04T22:36:29.927Z,1.70
2022-12-04T22:39:09.488Z,1.70
2022-12-04T22:41:37.436Z,1.70
2022-12-04T22:44:04.796Z,1.80
2022-12-04T22:46:31.832Z,1.80
2022-12-04T22:48:59.367Z,1.70
2022-12-04T22:51:27.124Z,1.80
2022-12-04T22:53:56.124Z,1.80
2022-12-04T22:56:30.870Z,1.80
2022-12-04T22:58:58.632Z,1.80
2022-12-04T23:01:31.451Z,1.80
2022-12-04T23:03:59.171Z,1.80
2022-12-04T23:06:28.766Z,1.80
2022-12-04T23:09:04.231Z,1.90
2022-12-04T23:11:31.199Z,1.80
2022-12-04T23:14:01.043Z,1.70
2022-12-04T23:16:29.963Z,1.70
2022-12-04T23:18:56.942Z,1.70
2022-12-04T23:21:24.231Z,1.60
2022-12-04T23:23:52.934Z,1.60
2022-12-04T23:26:26.773Z,1.60
2022-12-04T23:28:54.739Z,1.60
2022-12-04T23:31:21.576Z,1.60
2022-12-04T23:33:48.446Z,1.80
2022-12-04T23:36:15.527Z,1.80
2022-12-04T23:38:43.677Z,1.80
2022-12-04T23:41:40.718Z,1.70
2022-12-04T23:44:07.359Z,1.70
2022-12-04T23:46:34.142Z,1.80
2022-12-04T23:49:01.567Z,1.70
2022-12-04T23:51:28.910Z,1.80
2022-12-04T23:53:56.161Z,1.90
2022-12-04T23:56:25.276Z,1.90
2022-12-04T23:58:54.085Z,1.80
